createdAt,value
2018-05-16T00:01:05.696Z,99.90
2018-05-16T00:03:33.796Z,99.90
2018-05-16T00:06:01.883Z,99.90
2018-05-16T00:08:29.989Z,99.90
2018-05-16T00:10:58.076Z,99.90
2018-05-16T00:13:26.174Z,99.90
2018-05-16T00:15:56.237Z,99.90
2018-05-16T00:18:26.275Z,99.90
2018-05-16T00:21:01.526Z,99.90
2018-05-16T00:23:29.628Z,99.90
2018-05-16T00:25:57.728Z,99.90
2018-05-16T00:28:25.812Z,99.90
2018-05-16T00:30:57.748Z,99.90
2018-05-16T00:33:25.852Z,99.90
2018-05-16T00:35:53.945Z,99.90
2018-05-16T00:38:24.147Z,99.90
2018-05-16T00:40:52.237Z,99.90
2018-05-16T00:43:20.441Z,99.90
2018-05-16T00:45:49.210Z,99.90
2018-05-16T00:48:17.345Z,99.90
2018-05-16T00:51:01.335Z,99.90
2018-05-16T00:53:30.206Z,99.90
2018-05-16T00:55:58.305Z,99.90
2018-05-16T00:58:37.458Z,99.90
2018-05-16T01:01:05.546Z,99.90
2018-05-16T01:03:35.626Z,99.90
2018-05-16T01:06:09.746Z,99.90
2018-05-16T01:08:37.847Z,99.90
2018-05-16T01:11:07.891Z,99.90
2018-05-16T01:13:36.029Z,99.90
2018-05-16T01:16:05.040Z,99.90
2018-05-16T01:18:33.126Z,99.90
2018-05-16T01:21:03.159Z,99.90
2018-05-16T01:23:32.148Z,99.90
2018-05-16T01:26:00.249Z,99.90
2018-05-16T01:28:28.349Z,99.90
2018-05-16T01:30:57.224Z,99.90
2018-05-16T01:33:25.308Z,99.90
2018-05-16T01:35:54.317Z,99.90
2018-05-16T01:38:24.336Z,99.90
2018-05-16T01:40:53.197Z,99.90
2018-05-16T01:43:24.611Z,99.90
2018-05-16T01:45:53.630Z,99.90
2018-05-16T01:48:21.720Z,99.90
2018-05-16T01:50:49.826Z,99.90
2018-05-16T01:53:17.906Z,99.90
2018-05-16T01:55:46.001Z,99.90
2018-05-16T01:58:14.094Z,99.90
2018-05-16T02:00:43.157Z,99.90
2018-05-16T02:03:13.212Z,99.90
2018-05-16T02:05:41.302Z,99.90
2018-05-16T02:08:09.427Z,99.90
2018-05-16T02:10:38.649Z,99.90
2018-05-16T02:13:07.652Z,99.90
2018-05-16T02:15:35.737Z,99.90
2018-05-16T02:18:03.810Z,99.90
2018-05-16T02:20:32.667Z,99.90
2018-05-16T02:23:00.751Z,99.90
2018-05-16T02:25:28.836Z,99.90
2018-05-16T02:27:56.939Z,99.90
2018-05-16T02:30:25.062Z,99.90
2018-05-16T02:32:54.146Z,99.90
2018-05-16T02:35:22.279Z,99.90
2018-05-16T02:37:51.359Z,99.90
2018-05-16T02:40:19.472Z,99.90
2018-05-16T02:42:50.599Z,99.90
2018-05-16T02:45:18.709Z,99.90
2018-05-16T02:47:46.821Z,99.90
2018-05-16T02:50:14.912Z,99.90
2018-05-16T02:52:43.014Z,99.90
2018-05-16T02:55:11.887Z,99.90
2018-05-16T02:57:53.367Z,99.90
2018-05-16T03:00:21.470Z,99.90
2018-05-16T03:02:49.560Z,99.90
2018-05-16T03:05:18.622Z,99.90
2018-05-16T03:07:48.241Z,99.90
2018-05-16T03:10:17.094Z,99.90
2018-05-16T03:12:45.200Z,99.90
2018-05-16T03:15:21.050Z,99.90
2018-05-16T03:17:49.134Z,99.90
2018-05-16T03:20:19.196Z,99.90
2018-05-16T03:22:57.687Z,99.90
2018-05-16T03:25:27.767Z,99.90
2018-05-16T03:28:00.262Z,99.90
2018-05-16T03:30:32.944Z,99.90
2018-05-16T03:33:01.031Z,99.90
2018-05-16T03:35:29.131Z,99.90
2018-05-16T03:38:03.834Z,99.90
2018-05-16T03:40:33.724Z,99.90
2018-05-16T03:43:06.564Z,99.90
2018-05-16T03:45:34.655Z,99.90
2018-05-16T03:48:03.525Z,99.90
2018-05-16T03:50:32.584Z,99.90
2018-05-16T03:53:01.071Z,99.90
2018-05-16T03:55:29.174Z,99.90
2018-05-16T03:58:13.888Z,99.90
2018-05-16T04:00:55.619Z,99.90
2018-05-16T04:03:35.595Z,99.90
2018-05-16T04:06:05.614Z,99.90
2018-05-16T04:08:33.719Z,99.90
2018-05-16T04:11:01.825Z,99.90
2018-05-16T04:13:30.015Z,99.90
2018-05-16T04:15:57.993Z,99.90
2018-05-16T04:18:26.090Z,99.90
2018-05-16T04:20:57.590Z,99.90
2018-05-16T04:23:30.400Z,99.90
2018-05-16T04:25:58.502Z,99.90
2018-05-16T04:28:29.100Z,99.90
2018-05-16T04:31:00.565Z,99.90
2018-05-16T04:33:29.444Z,99.90
2018-05-16T04:35:58.495Z,99.90
2018-05-16T04:38:27.644Z,99.90
2018-05-16T04:40:57.718Z,99.90
2018-05-16T04:43:29.500Z,99.90
2018-05-16T04:46:01.333Z,99.90
2018-05-16T04:48:31.218Z,99.90
2018-05-16T04:51:09.627Z,99.90
2018-05-16T04:53:37.745Z,99.90
2018-05-16T04:56:05.884Z,99.90
2018-05-16T04:58:39.931Z,99.90
2018-05-16T05:01:08.823Z,99.90
2018-05-16T05:03:36.976Z,99.90
2018-05-16T05:06:05.836Z,99.90
2018-05-16T05:08:33.921Z,99.90
2018-05-16T05:11:19.021Z,99.90
2018-05-16T05:14:03.674Z,99.90
2018-05-16T05:16:31.771Z,99.90
2018-05-16T05:19:01.213Z,99.90
2018-05-16T05:21:29.566Z,99.90
2018-05-16T05:23:57.744Z,99.90
2018-05-16T05:26:25.800Z,99.90
2018-05-16T05:28:57.537Z,99.90
2018-05-16T05:31:32.812Z,99.90
2018-05-16T05:34:01.868Z,99.90
2018-05-16T05:36:35.641Z,99.90
2018-05-16T05:39:03.739Z,99.90
2018-05-16T05:41:31.840Z,99.90
2018-05-16T05:44:00.010Z,99.90
2018-05-16T05:46:33.637Z,99.90
2018-05-16T05:49:13.180Z,99.90
2018-05-16T05:51:41.301Z,99.90
2018-05-16T05:54:09.411Z,99.90
2018-05-16T05:56:45.186Z,99.90
2018-05-16T05:59:13.883Z,99.90
2018-05-16T06:01:42.732Z,99.90
2018-05-16T06:04:10.842Z,99.90
2018-05-16T06:06:38.957Z,99.90
2018-05-16T06:09:07.090Z,99.90
2018-05-16T06:11:35.214Z,99.90
2018-05-16T06:14:03.298Z,99.90
2018-05-16T06:16:31.396Z,99.90
2018-05-16T06:19:00.257Z,99.90
2018-05-16T06:21:28.494Z,99.90
2018-05-16T06:23:56.612Z,99.90
2018-05-16T06:26:28.175Z,99.90
2018-05-16T06:28:57.300Z,99.90
2018-05-16T06:31:26.384Z,99.90
2018-05-16T06:34:00.502Z,99.90
2018-05-16T06:36:28.604Z,99.90
2018-05-16T06:38:56.740Z,99.90
2018-05-16T06:41:25.608Z,99.90
2018-05-16T06:43:53.709Z,99.90
2018-05-16T06:46:28.153Z,99.90
2018-05-16T06:49:00.245Z,99.90
2018-05-16T06:51:28.344Z,99.90
2018-05-16T06:53:57.340Z,99.90
2018-05-16T06:56:25.518Z,99.90
2018-05-16T06:58:53.768Z,99.90
2018-05-16T07:01:21.828Z,99.90
2018-05-16T07:04:10.801Z,99.90
2018-05-16T07:06:43.506Z,99.90
2018-05-16T07:09:17.813Z,99.90
2018-05-16T07:11:45.926Z,99.90
2018-05-16T07:14:14.043Z,99.90
2018-05-16T07:16:42.145Z,99.90
2018-05-16T07:19:17.897Z,99.90
2018-05-16T07:21:46.758Z,99.90
2018-05-16T07:24:15.836Z,99.90
2018-05-16T07:26:43.967Z,99.90
2018-05-16T07:29:12.089Z,99.90
2018-05-16T07:31:40.193Z,99.90
2018-05-16T07:34:09.102Z,99.90
2018-05-16T07:36:37.274Z,99.90
2018-05-16T07:39:10.623Z,99.90
2018-05-16T07:41:43.446Z,99.90
2018-05-16T07:44:11.541Z,99.90
2018-05-16T07:46:42.796Z,99.90
2018-05-16T07:49:12.718Z,99.90
2018-05-16T07:51:42.813Z,99.90
2018-05-16T07:54:10.913Z,99.90
2018-05-16T07:56:39.051Z,99.90
2018-05-16T07:59:08.101Z,99.90
2018-05-16T08:01:37.522Z,99.90
2018-05-16T08:04:06.588Z,99.90
2018-05-16T08:06:34.674Z,99.90
2018-05-16T08:09:08.172Z,99.90
2018-05-16T08:11:37.503Z,99.90
2018-05-16T08:14:07.471Z,99.90
2018-05-16T08:16:35.568Z,99.90
2018-05-16T08:19:03.713Z,99.90
2018-05-16T08:21:33.797Z,99.90
2018-05-16T08:24:03.854Z,99.90
2018-05-16T08:26:36.270Z,99.90
2018-05-16T08:29:04.364Z,99.90
2018-05-16T08:31:32.484Z,99.90
2018-05-16T08:34:00.583Z,99.90
2018-05-16T08:36:28.672Z,99.90
2018-05-16T08:38:56.766Z,99.90
2018-05-16T08:41:24.875Z,99.90
2018-05-16T08:43:52.981Z,99.90
2018-05-16T08:46:30.594Z,99.90
2018-05-16T08:48:59.617Z,99.90
2018-05-16T08:51:27.731Z,99.90
2018-05-16T08:53:55.834Z,99.90
2018-05-16T08:56:23.936Z,99.90
2018-05-16T08:58:52.052Z,99.90
2018-05-16T09:01:20.543Z,99.90
2018-05-16T09:03:50.655Z,99.90
2018-05-16T09:06:19.534Z,99.90
2018-05-16T09:08:47.684Z,99.90
2018-05-16T09:11:15.795Z,99.90
2018-05-16T09:13:43.977Z,99.90
2018-05-16T09:16:15.917Z,99.90
2018-05-16T09:18:44.749Z,99.90
2018-05-16T09:21:12.879Z,99.90
2018-05-16T09:23:42.716Z,99.90
2018-05-16T09:26:10.817Z,99.90
2018-05-16T09:28:38.899Z,99.90
2018-05-16T09:31:07.512Z,99.90
2018-05-16T09:33:35.633Z,99.90
2018-05-16T09:36:05.733Z,99.90
2018-05-16T09:38:34.888Z,99.90
2018-05-16T09:41:02.985Z,99.90
2018-05-16T09:43:32.836Z,99.90
2018-05-16T09:46:00.985Z,99.90
2018-05-16T09:48:29.070Z,99.90
2018-05-16T09:50:57.159Z,99.90
2018-05-16T09:53:31.388Z,99.90
2018-05-16T09:56:00.243Z,99.90
2018-05-16T09:58:28.444Z,99.90
2018-05-16T10:00:56.548Z,99.90
2018-05-16T10:03:27.320Z,99.90
2018-05-16T10:05:55.456Z,99.90
2018-05-16T10:08:23.563Z,99.90
2018-05-16T10:10:53.649Z,99.90
2018-05-16T10:13:24.493Z,99.90
2018-05-16T10:15:57.172Z,99.90
2018-05-16T10:18:26.426Z,99.90
2018-05-16T10:20:54.517Z,99.90
2018-05-16T10:23:24.799Z,99.90
2018-05-16T10:25:52.915Z,99.90
2018-05-16T10:28:24.861Z,99.90
2018-05-16T10:30:54.076Z,99.90
2018-05-16T10:33:22.178Z,99.90
2018-05-16T10:35:57.670Z,99.90
2018-05-16T10:38:25.767Z,99.90
2018-05-16T10:41:07.569Z,99.90
2018-05-16T10:43:36.422Z,99.90
2018-05-16T10:46:04.539Z,99.90
2018-05-16T10:48:36.686Z,99.90
2018-05-16T10:51:17.246Z,99.90
2018-05-16T10:53:49.368Z,99.90
2018-05-16T10:56:17.474Z,99.90
2018-05-16T10:58:46.510Z,99.70
2018-05-16T11:01:15.539Z,99.70
2018-05-16T11:06:40.055Z,99.70
2018-05-16T11:09:08.250Z,99.10
2018-05-16T11:11:41.490Z,99.10
2018-05-16T11:14:11.207Z,99.50
2018-05-16T11:16:50.215Z,99.50
2018-05-16T11:19:18.355Z,98.90
2018-05-16T11:21:47.402Z,98.00
2018-05-16T11:24:17.462Z,97.50
2018-05-16T11:26:45.567Z,97.70
2018-05-16T11:29:15.636Z,98.00
2018-05-16T11:31:44.484Z,98.40
2018-05-16T11:34:12.574Z,98.40
2018-05-16T11:36:41.151Z,97.70
2018-05-16T11:39:12.416Z,97.30
2018-05-16T11:41:42.423Z,97.40
2018-05-16T11:44:11.493Z,97.70
2018-05-16T11:46:44.040Z,97.70
2018-05-16T11:49:14.202Z,97.80
2018-05-16T11:51:42.316Z,97.70
2018-05-16T11:54:10.461Z,97.40
2018-05-16T11:56:40.611Z,97.70
2018-05-16T11:59:10.412Z,98.40
2018-05-16T12:01:38.486Z,98.40
2018-05-16T12:04:06.622Z,98.50
2018-05-16T12:06:37.799Z,98.20
2018-05-16T12:09:05.964Z,98.50
2018-05-16T12:11:34.023Z,97.50
2018-05-16T12:14:02.886Z,95.80
2018-05-16T12:16:36.263Z,95.80
2018-05-16T12:19:04.362Z,94.60
2018-05-16T12:21:33.252Z,94.10
2018-05-16T12:24:02.239Z,93.40
2018-05-16T12:26:30.344Z,93.40
2018-05-16T12:28:59.450Z,93.10
2018-05-16T12:31:28.421Z,93.00
2018-05-16T12:33:58.267Z,92.60
2018-05-16T12:36:26.438Z,92.60
2018-05-16T12:38:54.469Z,92.40
2018-05-16T12:41:28.904Z,90.80
2018-05-16T12:43:56.980Z,91.30
2018-05-16T12:46:29.362Z,91.40
2018-05-16T12:48:59.985Z,91.40
2018-05-16T12:51:28.055Z,91.60
2018-05-16T12:53:56.195Z,92.10
2018-05-16T12:56:25.876Z,92.20
2018-05-16T12:59:01.844Z,92.00
2018-05-16T13:01:30.511Z,91.80
2018-05-16T13:03:58.534Z,91.90
2018-05-16T13:06:26.639Z,91.50
2018-05-16T13:08:54.730Z,91.30
2018-05-16T13:11:24.841Z,91.40
2018-05-16T13:13:54.932Z,91.00
2018-05-16T13:16:23.078Z,90.90
2018-05-16T13:19:12.027Z,90.00
2018-05-16T13:21:40.291Z,90.30
2018-05-16T13:24:09.840Z,89.70
2018-05-16T13:26:37.945Z,89.60
2018-05-16T13:32:04.115Z,89.60
2018-05-16T13:34:32.468Z,89.20
2018-05-16T13:37:00.563Z,89.20
2018-05-16T13:39:30.512Z,89.40
2018-05-16T13:41:58.590Z,89.50
2018-05-16T13:44:26.682Z,86.00
2018-05-16T13:46:54.797Z,86.00
2018-05-16T13:49:23.041Z,87.80
2018-05-16T13:51:51.147Z,87.70
2018-05-16T13:54:25.836Z,88.20
2018-05-16T13:56:58.156Z,90.10
2018-05-16T13:59:26.336Z,89.80
2018-05-16T14:01:56.850Z,89.90
2018-05-16T14:04:24.967Z,90.40
2018-05-16T14:06:56.971Z,87.80
2018-05-16T14:09:25.732Z,87.80
2018-05-16T14:14:53.604Z,88.70
2018-05-16T14:17:24.280Z,88.90
2018-05-16T14:19:52.369Z,90.10
2018-05-16T14:22:20.480Z,90.50
2018-05-16T14:24:48.606Z,90.70
2018-05-16T14:27:17.665Z,90.60
2018-05-16T14:29:45.761Z,90.50
2018-05-16T14:32:13.876Z,90.40
2018-05-16T14:34:42.740Z,90.10
2018-05-16T14:37:10.948Z,90.10
2018-05-16T14:39:39.037Z,90.40
2018-05-16T14:42:07.160Z,90.60
2018-05-16T14:44:35.272Z,90.80
2018-05-16T14:47:05.284Z,90.80
2018-05-16T14:49:33.370Z,91.40
2018-05-16T14:52:02.463Z,91.20
2018-05-16T14:54:30.594Z,90.30
2018-05-16T14:57:00.274Z,90.00
2018-05-16T14:59:28.444Z,90.10
2018-05-16T15:01:56.552Z,90.20
2018-05-16T15:04:24.644Z,90.20
2018-05-16T15:07:03.377Z,90.30
2018-05-16T15:09:32.459Z,90.40
2018-05-16T15:12:00.590Z,90.90
2018-05-16T15:14:32.935Z,91.30
2018-05-16T15:17:01.083Z,91.70
2018-05-16T15:19:29.953Z,91.80
2018-05-16T15:21:58.058Z,91.70
2018-05-16T15:24:26.189Z,91.10
2018-05-16T15:26:54.279Z,91.10
2018-05-16T15:29:23.357Z,91.00
2018-05-16T15:31:52.306Z,91.10
2018-05-16T15:34:21.465Z,91.10
2018-05-16T15:36:50.423Z,90.60
2018-05-16T15:39:23.655Z,90.60
2018-05-16T15:41:57.507Z,90.90
2018-05-16T15:44:33.168Z,90.80
2018-05-16T15:47:04.318Z,90.70
2018-05-16T15:49:33.198Z,91.00
2018-05-16T15:52:06.182Z,91.00
2018-05-16T15:54:34.273Z,90.80
2018-05-16T15:57:02.398Z,90.80
2018-05-16T15:59:32.481Z,91.00
2018-05-16T16:02:02.604Z,90.60
2018-05-16T16:04:30.784Z,90.30
2018-05-16T16:06:58.924Z,90.60
2018-05-16T16:09:27.048Z,90.20
2018-05-16T16:11:56.154Z,90.40
2018-05-16T16:14:24.256Z,90.30
2018-05-16T16:16:59.608Z,90.70
2018-05-16T16:19:27.713Z,90.80
2018-05-16T16:22:07.380Z,90.70
2018-05-16T16:24:36.252Z,90.60
2018-05-16T16:27:12.370Z,90.50
2018-05-16T16:29:40.800Z,90.50
2018-05-16T16:32:08.958Z,90.30
2018-05-16T16:34:37.691Z,90.30
2018-05-16T16:37:06.631Z,90.50
2018-05-16T16:42:23.805Z,90.20
2018-05-16T16:44:56.534Z,90.10
2018-05-16T16:47:24.558Z,90.40
2018-05-16T16:50:02.649Z,90.20
2018-05-16T16:52:31.759Z,90.10
2018-05-16T16:54:59.890Z,90.20
2018-05-16T16:57:28.816Z,90.50
2018-05-16T17:00:04.524Z,90.50
2018-05-16T17:02:32.589Z,90.30
2018-05-16T17:05:00.798Z,90.40
2018-05-16T17:07:29.865Z,90.90
2018-05-16T17:09:57.968Z,91.20
2018-05-16T17:12:26.127Z,91.20
2018-05-16T17:14:54.993Z,91.30
2018-05-16T17:17:23.867Z,91.40
2018-05-16T17:19:56.146Z,91.40
2018-05-16T17:22:24.256Z,91.10
2018-05-16T17:24:52.348Z,90.70
2018-05-16T17:27:20.475Z,90.80
2018-05-16T17:29:48.566Z,89.80
2018-05-16T17:32:16.659Z,88.20
2018-05-16T17:34:44.797Z,88.20
2018-05-16T17:37:13.664Z,88.80
2018-05-16T17:39:41.811Z,88.80
2018-05-16T17:42:09.899Z,89.60
2018-05-16T17:44:38.841Z,92.30
2018-05-16T17:47:06.941Z,92.60
2018-05-16T17:49:35.805Z,93.40
2018-05-16T17:52:03.898Z,93.40
2018-05-16T17:54:32.005Z,93.60
2018-05-16T17:57:00.166Z,93.60
2018-05-16T17:59:28.308Z,93.60
2018-05-16T18:01:56.403Z,93.60
2018-05-16T18:04:39.387Z,93.70
2018-05-16T18:07:07.679Z,94.20
2018-05-16T18:09:35.793Z,95.00
2018-05-16T18:12:04.803Z,96.10
2018-05-16T18:17:48.543Z,98.30
2018-05-16T18:20:16.641Z,99.30
2018-05-16T18:22:45.697Z,99.90
2018-05-16T18:25:14.691Z,99.90
2018-05-16T18:27:42.791Z,99.90
2018-05-16T18:30:12.656Z,99.90
2018-05-16T18:32:53.164Z,99.90
2018-05-16T18:35:21.257Z,99.90
2018-05-16T18:37:50.380Z,99.90
2018-05-16T18:40:20.419Z,99.90
2018-05-16T18:43:07.313Z,99.90
2018-05-16T18:45:35.436Z,99.90
2018-05-16T18:48:07.606Z,99.90
2018-05-16T18:50:35.724Z,99.90
2018-05-16T18:53:03.870Z,99.90
2018-05-16T18:55:32.735Z,99.90
2018-05-16T18:58:01.611Z,99.90
2018-05-16T19:00:29.720Z,99.90
2018-05-16T19:05:57.734Z,99.90
2018-05-16T19:08:27.034Z,99.90
2018-05-16T19:10:55.256Z,99.90
2018-05-16T19:13:24.321Z,99.90
2018-05-16T19:15:53.418Z,99.90
2018-05-16T19:18:26.077Z,99.90
2018-05-16T19:20:55.107Z,99.90
2018-05-16T19:23:23.204Z,99.90
2018-05-16T19:25:51.997Z,99.90
2018-05-16T19:28:20.154Z,99.90
2018-05-16T19:30:48.272Z,99.90
2018-05-16T19:33:16.363Z,99.90
2018-05-16T19:35:44.467Z,99.90
2018-05-16T19:38:13.338Z,99.90
2018-05-16T19:40:41.990Z,99.90
2018-05-16T19:43:10.851Z,99.90
2018-05-16T19:45:38.956Z,99.90
2018-05-16T19:48:07.820Z,99.90
2018-05-16T19:50:35.917Z,99.90
2018-05-16T19:53:04.589Z,99.90
2018-05-16T19:55:32.701Z,99.90
2018-05-16T19:58:00.821Z,99.90
2018-05-16T20:00:28.949Z,99.90
2018-05-16T20:02:57.059Z,99.90
2018-05-16T20:05:25.149Z,99.90
2018-05-16T20:07:55.220Z,99.90
2018-05-16T20:10:23.642Z,99.90
2018-05-16T20:12:51.759Z,99.90
2018-05-16T20:15:19.840Z,99.90
2018-05-16T20:17:48.826Z,99.90
2018-05-16T20:20:19.979Z,99.90
2018-05-16T20:22:48.109Z,99.90
2018-05-16T20:25:16.864Z,99.90
2018-05-16T20:27:44.950Z,99.90
2018-05-16T20:30:13.063Z,99.90
2018-05-16T20:32:41.586Z,99.90
2018-05-16T20:35:10.127Z,99.90
2018-05-16T20:37:38.242Z,99.90
2018-05-16T20:40:06.338Z,99.90
2018-05-16T20:42:34.460Z,99.90
2018-05-16T20:45:02.561Z,99.90
2018-05-16T20:47:30.664Z,99.90
2018-05-16T20:49:58.782Z,99.90
2018-05-16T20:52:27.529Z,99.90
2018-05-16T20:54:55.620Z,99.90
2018-05-16T20:57:24.670Z,99.90
2018-05-16T20:59:52.794Z,99.90
2018-05-16T21:02:20.910Z,99.90
2018-05-16T21:04:49.787Z,99.90
2018-05-16T21:07:17.876Z,99.90
2018-05-16T21:09:45.972Z,99.90
2018-05-16T21:12:14.073Z,99.90
2018-05-16T21:14:42.944Z,99.90
2018-05-16T21:17:11.044Z,99.90
2018-05-16T21:19:39.130Z,99.90
2018-05-16T21:22:07.241Z,99.90
2018-05-16T21:24:35.373Z,99.90
2018-05-16T21:27:03.467Z,99.90
2018-05-16T21:29:31.573Z,99.90
2018-05-16T21:32:00.487Z,99.90
2018-05-16T21:34:29.356Z,99.90
2018-05-16T21:36:57.463Z,99.90
2018-05-16T21:39:26.318Z,99.90
2018-05-16T21:41:54.434Z,99.90
2018-05-16T21:44:22.529Z,99.90
2018-05-16T21:46:50.631Z,99.90
2018-05-16T21:49:18.820Z,99.90
2018-05-16T21:51:46.904Z,99.90
2018-05-16T21:54:15.000Z,99.90
2018-05-16T21:56:43.128Z,99.90
2018-05-16T21:59:11.229Z,99.90
2018-05-16T22:01:39.329Z,99.90
2018-05-16T22:04:07.438Z,99.90
2018-05-16T22:06:35.548Z,99.90
2018-05-16T22:09:03.634Z,99.90
2018-05-16T22:11:32.535Z,99.90
2018-05-16T22:14:00.626Z,99.90
2018-05-16T22:16:28.727Z,99.90
2018-05-16T22:18:56.823Z,99.90
2018-05-16T22:21:24.933Z,99.90
2018-05-16T22:23:53.051Z,99.90
2018-05-16T22:26:21.156Z,99.90
2018-05-16T22:28:49.260Z,99.90
2018-05-16T22:31:23.830Z,99.90
2018-05-16T22:33:57.530Z,99.90
2018-05-16T22:36:31.335Z,99.90
2018-05-16T22:39:05.186Z,99.90
2018-05-16T22:41:38.845Z,99.90
2018-05-16T22:44:12.606Z,99.90
2018-05-16T22:46:40.726Z,99.90
2018-05-16T22:49:08.823Z,99.90
2018-05-16T22:51:36.933Z,99.90
2018-05-16T22:54:05.029Z,99.90
2018-05-16T22:56:33.893Z,99.90
2018-05-16T22:59:01.993Z,99.90
2018-05-16T23:01:30.473Z,99.90
2018-05-16T23:03:58.547Z,99.90
2018-05-16T23:06:26.643Z,99.90
2018-05-16T23:08:54.767Z,99.90
2018-05-16T23:11:23.614Z,99.90
2018-05-16T23:13:51.718Z,99.90
2018-05-16T23:16:19.825Z,99.90
2018-05-16T23:18:48.723Z,99.90
2018-05-16T23:21:16.804Z,99.90
2018-05-16T23:23:45.672Z,99.90
2018-05-16T23:26:13.767Z,99.90
2018-05-16T23:28:41.864Z,99.90
2018-05-16T23:31:09.946Z,99.90
2018-05-16T23:33:38.047Z,99.90
2018-05-16T23:36:06.919Z,99.90
2018-05-16T23:38:35.038Z,99.90
2018-05-16T23:41:03.121Z,99.90
2018-05-16T23:43:32.004Z,99.90
2018-05-16T23:46:00.099Z,99.90
2018-05-16T23:48:28.194Z,99.90
2018-05-16T23:50:57.089Z,99.90
2018-05-16T23:53:25.950Z,99.90
2018-05-16T23:55:54.073Z,99.90
2018-05-16T23:58:22.560Z,99.90
